Time,TemperatureF,DewpointF,PressureIn,WindDirection,WindDirectionDegrees,WindSpeedMPH,WindSpeedGustMPH,Humidity,HourlyPrecipIn,Conditions,Clouds,dailyrainin,SolarRadiationWatts/m^2,SoftwareType,DateUTC
2013-04-11 00:12:00,40.0,30.0,-100.00,NW,307,18.0,23.0,67,0.00,,,0.00,0.000000,,2013-04-11 07:12:00,
2013-04-11 00:22:00,40.0,30.0,-100.00,NW,307,18.0,23.0,67,0.00,,,0.00,0.000000,,2013-04-11 07:22:00,
2013-04-11 00:32:00,40.0,30.0,-100.00,NW,307,18.0,23.0,67,0.00,,,0.00,0.000000,,2013-04-11 07:32:00,
2013-04-11 00:42:00,40.0,30.0,-100.00,NW,307,18.0,23.0,67,0.00,,,0.00,0.000000,,2013-04-11 07:42:00,
2013-04-11 01:12:00,40.0,28.0,-100.00,WNW,301,9.0,22.0,62,0.00,,,0.00,0.000000,,2013-04-11 08:12:00,
2013-04-11 01:22:00,40.0,28.0,-100.00,WNW,301,9.0,22.0,62,0.00,,,0.00,0.000000,,2013-04-11 08:22:00,
2013-04-11 01:32:00,40.0,28.0,-100.00,WNW,301,9.0,22.0,62,0.00,,,0.00,0.000000,,2013-04-11 08:32:00,
2013-04-11 01:42:00,40.0,28.0,-100.00,WNW,301,9.0,22.0,62,0.00,,,0.00,0.000000,,2013-04-11 08:42:00,
2013-04-11 02:02:00,39.0,26.0,-100.00,NW,313,18.0,26.0,59,0.00,,,0.00,0.000000,,2013-04-11 09:02:00,
2013-04-11 02:12:00,39.0,26.0,-100.00,NW,313,18.0,26.0,59,0.00,,,0.00,0.000000,,2013-04-11 09:12:00,
2013-04-11 02:22:00,39.0,26.0,-100.00,NW,313,18.0,26.0,59,0.00,,,0.00,0.000000,,2013-04-11 09:22:00,
2013-04-11 02:33:00,39.0,26.0,-100.00,NW,313,18.0,26.0,59,0.00,,,0.00,0.000000,,2013-04-11 09:33:00,
2013-04-11 02:42:00,39.0,26.0,-100.00,NW,313,18.0,26.0,59,0.00,,,0.00,0.000000,,2013-04-11 09:42:00,
2013-04-11 03:12:00,39.0,25.0,-100.00,WNW,302,23.0,36.0,57,0.00,,,0.00,0.000000,,2013-04-11 10:12:00,
2013-04-11 03:22:00,39.0,25.0,-100.00,WNW,302,23.0,36.0,57,0.00,,,0.00,0.000000,,2013-04-11 10:22:00,
2013-04-11 03:32:00,39.0,25.0,-100.00,WNW,302,23.0,36.0,57,0.00,,,0.00,0.000000,,2013-04-11 10:32:00,
2013-04-11 03:41:00,39.0,25.0,-100.00,WNW,302,23.0,36.0,57,0.00,,,0.00,0.000000,,2013-04-11 10:41:00,
2013-04-11 04:12:00,40.0,26.0,-100.00,WNW,303,27.0,40.0,56,0.00,,,0.00,0.000000,,2013-04-11 11:12:00,
2013-04-11 04:22:00,40.0,26.0,-100.00,WNW,303,27.0,40.0,56,0.00,,,0.00,0.000000,,2013-04-11 11:22:00,
2013-04-11 04:32:00,40.0,26.0,-100.00,WNW,303,27.0,40.0,56,0.00,,,0.00,0.000000,,2013-04-11 11:32:00,
2013-04-11 04:42:00,40.0,26.0,-100.00,WNW,303,27.0,40.0,56,0.00,,,0.00,0.000000,,2013-04-11 11:42:00,
2013-04-11 05:12:00,42.0,27.0,-100.00,WNW,299,26.0,43.0,55,0.00,,,-99.99,0.000000,,2013-04-11 12:12:00,
2013-04-11 05:22:00,42.0,27.0,-100.00,WNW,299,26.0,43.0,55,0.00,,,-99.99,0.000000,,2013-04-11 12:22:00,
2013-04-11 05:32:00,42.0,27.0,-100.00,WNW,299,26.0,43.0,55,0.00,,,-99.99,0.000000,,2013-04-11 12:32:00,
2013-04-11 05:42:00,42.0,27.0,-100.00,WNW,299,26.0,43.0,55,0.00,,,-99.99,0.000000,,2013-04-11 12:42:00,
2013-04-11 06:12:00,41.0,27.0,-100.00,WNW,286,23.0,34.0,58,0.00,,,-99.99,0.000000,,2013-04-11 13:12:00,
2013-04-11 06:22:00,41.0,27.0,-100.00,WNW,286,23.0,34.0,58,0.00,,,-99.99,0.000000,,2013-04-11 13:22:00,
2013-04-11 06:32:00,41.0,27.0,-100.00,WNW,286,23.0,34.0,58,0.00,,,-99.99,0.000000,,2013-04-11 13:32:00,
2013-04-11 06:42:00,41.0,27.0,-100.00,WNW,286,23.0,34.0,58,0.00,,,-99.99,0.000000,,2013-04-11 13:42:00,
2013-04-11 07:02:00,39.0,27.0,-100.00,West,279,23.0,32.0,61,0.00,,,0.00,0.000000,,2013-04-11 14:02:00,
2013-04-11 07:12:00,39.0,27.0,-100.00,West,279,23.0,32.0,61,0.00,,,0.00,0.000000,,2013-04-11 14:12:00,
2013-04-11 07:22:00,39.0,27.0,-100.00,West,279,23.0,32.0,61,0.00,,,0.00,0.000000,,2013-04-11 14:22:00,
2013-04-11 07:32:00,39.0,27.0,-100.00,West,279,23.0,32.0,61,0.00,,,0.00,0.000000,,2013-04-11 14:32:00,
2013-04-11 07:42:00,39.0,27.0,-100.00,West,279,23.0,32.0,61,0.00,,,0.00,0.000000,,2013-04-11 14:42:00,
2013-04-11 10:12:00,42.0,28.0,-100.00,WNW,291,23.0,34.0,57,-99.99,,,0.00,75.000000,,2013-04-11 17:12:00,
2013-04-11 10:23:00,42.0,28.0,-100.00,WNW,291,23.0,34.0,57,-99.99,,,0.00,75.000000,,2013-04-11 17:23:00,
2013-04-11 10:32:00,42.0,28.0,-100.00,WNW,291,23.0,34.0,57,-99.99,,,0.00,75.000000,,2013-04-11 17:32:00,
2013-04-11 10:42:00,42.0,28.0,-100.00,WNW,291,23.0,34.0,57,-99.99,,,0.00,75.000000,,2013-04-11 17:42:00,
2013-04-11 11:13:00,44.0,26.0,-100.00,WNW,288,25.0,34.0,49,0.00,,,0.00,117.000000,,2013-04-11 18:13:00,
2013-04-11 11:22:00,44.0,26.0,-100.00,WNW,288,25.0,34.0,49,0.00,,,0.00,117.000000,,2013-04-11 18:22:00,
2013-04-11 11:32:00,44.0,26.0,-100.00,WNW,288,25.0,34.0,49,0.00,,,0.00,117.000000,,2013-04-11 18:32:00,
2013-04-11 11:42:00,44.0,26.0,-100.00,WNW,288,25.0,34.0,49,0.00,,,0.00,117.000000,,2013-04-11 18:42:00,
2013-04-11 12:13:00,48.0,25.0,-100.00,WNW,292,23.0,37.0,41,0.00,,,0.00,363.000000,,2013-04-11 19:13:00,
2013-04-11 12:22:00,48.0,25.0,-100.00,WNW,292,23.0,37.0,41,0.00,,,0.00,363.000000,,2013-04-11 19:22:00,
2013-04-11 12:32:00,48.0,25.0,-100.00,WNW,292,23.0,37.0,41,0.00,,,0.00,363.000000,,2013-04-11 19:32:00,
2013-04-11 12:42:00,48.0,25.0,-100.00,WNW,292,23.0,37.0,41,0.00,,,0.00,363.000000,,2013-04-11 19:42:00,
2013-04-11 13:13:00,52.0,26.0,-100.00,WNW,295,22.0,32.0,36,0.00,,,0.00,721.000000,,2013-04-11 20:13:00,
2013-04-11 13:22:00,52.0,26.0,-100.00,WNW,295,22.0,32.0,36,0.00,,,0.00,721.000000,,2013-04-11 20:22:00,
2013-04-11 13:33:00,52.0,26.0,-100.00,WNW,295,22.0,32.0,36,0.00,,,0.00,721.000000,,2013-04-11 20:33:00,
2013-04-11 13:42:00,52.0,26.0,-100.00,WNW,295,22.0,32.0,36,0.00,,,0.00,721.000000,,2013-04-11 20:42:00,
2013-04-11 14:12:00,52.0,24.0,-100.00,WNW,302,20.0,31.0,33,0.00,,,0.00,779.000000,,2013-04-11 21:12:00,
2013-04-11 14:22:00,52.0,24.0,-100.00,WNW,302,20.0,31.0,33,0.00,,,0.00,779.000000,,2013-04-11 21:22:00,
2013-04-11 14:33:00,52.0,24.0,-100.00,WNW,302,20.0,31.0,33,0.00,,,0.00,779.000000,,2013-04-11 21:33:00,
2013-04-11 14:42:00,52.0,24.0,-100.00,WNW,302,20.0,31.0,33,0.00,,,0.00,779.000000,,2013-04-11 21:42:00,
2013-04-11 15:13:00,53.0,25.0,-100.00,WNW,299,18.0,30.0,33,0.00,,,0.00,729.000000,,2013-04-11 22:13:00,
2013-04-11 15:23:00,53.0,25.0,-100.00,WNW,299,18.0,30.0,33,0.00,,,0.00,729.000000,,2013-04-11 22:23:00,
2013-04-11 15:32:00,53.0,25.0,-100.00,WNW,299,18.0,30.0,33,0.00,,,0.00,729.000000,,2013-04-11 22:32:00,
2013-04-11 15:43:00,53.0,25.0,-100.00,WNW,299,18.0,30.0,33,0.00,,,0.00,729.000000,,2013-04-11 22:43:00,
2013-04-11 16:12:00,53.0,22.0,-100.00,WNW,296,20.0,27.0,30,0.00,,,0.00,633.000000,,2013-04-11 23:12:00,
2013-04-11 16:22:00,53.0,22.0,-100.00,WNW,296,20.0,27.0,30,0.00,,,0.00,633.000000,,2013-04-11 23:22:00,
2013-04-11 16:32:00,53.0,22.0,-100.00,WNW,296,20.0,27.0,30,0.00,,,0.00,633.000000,,2013-04-11 23:32:00,
2013-04-11 16:42:00,53.0,22.0,-100.00,WNW,296,20.0,27.0,30,0.00,,,0.00,633.000000,,2013-04-11 23:42:00,
2013-04-11 17:12:00,51.0,22.0,-100.00,WNW,292,18.0,26.0,32,0.00,,,0.00,489.000000,,2013-04-12 00:12:00,
2013-04-11 17:22:00,51.0,22.0,-100.00,WNW,292,18.0,26.0,32,0.00,,,0.00,489.000000,,2013-04-12 00:22:00,
2013-04-11 17:32:00,51.0,22.0,-100.00,WNW,292,18.0,26.0,32,0.00,,,0.00,489.000000,,2013-04-12 00:32:00,
2013-04-11 17:42:00,51.0,22.0,-100.00,WNW,292,18.0,26.0,32,0.00,,,0.00,489.000000,,2013-04-12 00:42:00,
2013-04-11 18:12:00,51.0,24.0,-100.00,WNW,291,20.0,27.0,35,0.00,,,0.00,318.000000,,2013-04-12 01:12:00,
2013-04-11 18:22:00,51.0,24.0,-100.00,WNW,291,20.0,27.0,35,0.00,,,0.00,318.000000,,2013-04-12 01:22:00,
2013-04-11 18:32:00,51.0,24.0,-100.00,WNW,291,20.0,27.0,35,0.00,,,0.00,318.000000,,2013-04-12 01:32:00,
2013-04-11 18:42:00,51.0,24.0,-100.00,WNW,291,20.0,27.0,35,0.00,,,0.00,318.000000,,2013-04-12 01:42:00,
2013-04-11 19:12:00,46.0,24.0,-100.00,WNW,293,19.0,28.0,41,0.00,,,0.00,122.000000,,2013-04-12 02:12:00,
2013-04-11 19:22:00,46.0,24.0,-100.00,WNW,293,19.0,28.0,41,0.00,,,0.00,122.000000,,2013-04-12 02:22:00,
2013-04-11 19:32:00,46.0,24.0,-100.00,WNW,293,19.0,28.0,41,0.00,,,0.00,122.000000,,2013-04-12 02:32:00,
2013-04-11 19:42:00,46.0,24.0,-100.00,WNW,293,19.0,28.0,41,0.00,,,0.00,122.000000,,2013-04-12 02:42:00,
2013-04-11 20:12:00,41.0,23.0,-100.00,WNW,302,15.0,24.0,48,0.00,,,0.00,0.000000,,2013-04-12 03:12:00,
2013-04-11 20:22:00,41.0,23.0,-100.00,WNW,302,15.0,24.0,48,0.00,,,0.00,0.000000,,2013-04-12 03:22:00,
2013-04-11 20:33:00,41.0,23.0,-100.00,WNW,302,15.0,24.0,48,0.00,,,0.00,0.000000,,2013-04-12 03:33:00,
2013-04-11 20:43:00,41.0,23.0,-100.00,WNW,302,15.0,24.0,48,0.00,,,0.00,0.000000,,2013-04-12 03:43:00,
2013-04-11 21:13:00,38.0,22.0,-100.00,NW,308,14.0,20.0,52,0.00,,,0.00,0.000000,,2013-04-12 04:13:00,
2013-04-11 21:22:00,38.0,22.0,-100.00,NW,308,14.0,20.0,52,0.00,,,0.00,0.000000,,2013-04-12 04:22:00,
2013-04-11 21:33:00,38.0,22.0,-100.00,NW,308,14.0,20.0,52,0.00,,,0.00,0.000000,,2013-04-12 04:33:00,
2013-04-11 21:43:00,38.0,22.0,-100.00,NW,308,14.0,20.0,52,0.00,,,0.00,0.000000,,2013-04-12 04:43:00,
2013-04-11 22:12:00,37.0,24.0,-100.00,NW,311,11.0,17.0,58,0.00,,,0.00,0.000000,,2013-04-12 05:12:00,
2013-04-11 22:22:00,37.0,24.0,-100.00,NW,311,11.0,17.0,58,0.00,,,0.00,0.000000,,2013-04-12 05:22:00,
2013-04-11 22:32:00,37.0,24.0,-100.00,NW,311,11.0,17.0,58,0.00,,,0.00,0.000000,,2013-04-12 05:32:00,
2013-04-11 22:42:00,37.0,24.0,-100.00,NW,311,11.0,17.0,58,0.00,,,0.00,0.000000,,2013-04-12 05:42:00,
2013-04-11 23:12:00,32.0,22.0,-100.00,NNW,330,9.0,14.0,67,0.00,,,0.00,0.000000,,2013-04-12 06:12:00,
2013-04-11 23:22:00,32.0,22.0,-100.00,NNW,330,9.0,14.0,67,0.00,,,0.00,0.000000,,2013-04-12 06:22:00,
2013-04-11 23:32:00,32.0,22.0,-100.00,NNW,330,9.0,14.0,67,0.00,,,0.00,0.000000,,2013-04-12 06:32:00,
2013-04-11 23:42:00,32.0,22.0,-100.00,NNW,330,9.0,14.0,67,0.00,,,0.00,0.000000,,2013-04-12 06:42:00,